Flugplatz Nordenbeck (EDGN)

Hier findest Du alle Informationen zum Flugplatz Nordenbeck (EDGN).

Informationen für Piloten zum Flugplatz Nordenbeck

Hier findest Du alle relevanten Informationen, die Du als Pilot benötigst, um Nordenbeck anzufliegen.

Flugplatz: Nordenbeck ICAO-Code: EDGN
Frequenz Turm: 122,500 Mhz GAFOR Gebiet: 43
Frequenz Ground: 122,500 Mhz Mogas: nein
Platzrunde: S 2500 ft Landegebühr: -
Platzhöhe: - Sunrise: 03:48 Uhr UTC
Pisten: 08/26 - 600 m x 25 m, GRAS Sunset: 19:13 Uhr UTC

Flugwetter am Flugplatz Nordenbeck

Die METAR Information stammen aus EDVK (43.01 km entfernt).

METAR Code:
2021/07/08 06:50
EDVK 080650Z VRB01KT CAVOK 17/15 Q1020

Temperatur: 12,9 °C Niederschlag: - Wind: 3,3 kt (max.: 7,6 kt in Böen)
Temperatur (min.): 11,4 °C Luftdruck: 1010 hPa Windrichtung: 260 °
Temperatur (max.): 14,2 °C Luftfeuchtigkeit: 96 % Bewölkung: 4/8

Flugschulen am Flugplatz Nordenbeck

Am Flugplatz Nordenbeck gibt es leider keine Flugschule.

Benachbarte Flugplätze und Flugschulen

Es gibt 16 weitere Flugplätze in einem Umkreis von 50 km um den Flugplatz Nordenbeck.

Jetzt anmelden

Passwort vergessen

Umfrage Archiv

Seid Ihr aufgrund von Corona im Jahr 2020 mehr oder weniger geflogen als im Jahr zuvor?

weniger
56.7 %
gleich viel
26.2 %
mehr
17 %
Stimmen: 282 | Diskussion
Anzeige: Roland Aircraft
Statistik Alle Mitglieder

Aktuell sind 38 Besucher online.

Anzeige: VFR Sprechfunk Simulator Anzeige: Pocket FMS